Observation data for Childress on 11/19/2019      Previous  Date  Next       Current Mesonet Observations  Soil Data  Daily Summary Page  Observations in Plain Language
KCXS 190600Z 34006KT 12/M01 A2993 RMK A01 T01221006  RH  041%=      5-min Rain = 0
KCXS 190605Z 34006KT 12/M01 A2993 RMK A01 T01181007  RH  043%=      5-min Rain = 0
KCXS 190610Z 34005KT 12/M01 A2993 RMK A01 T01171007  RH  043%=      5-min Rain = 0
KCXS 190615Z 34005KT 12/M01 A2993 RMK A01 T01191007  RH  042%=      5-min Rain = 0
KCXS 190620Z 34005KT 12/M01 A2993 RMK A01 T01221006  RH  042%=      5-min Rain = 0
KCXS 190625Z 34005KT 13/M01 A2992 RMK A01 T01291005  RH  040%=      5-min Rain = 0
KCXS 190630Z 36005KT 14/M00 A2992 RMK A01 T01351003  RH  039%=      5-min Rain = 0
KCXS 190635Z 36005KT 14/M00 A2992 RMK A01 T01391003  RH  038%=      5-min Rain = 0
KCXS 190640Z 00005KT 14/M00 A2992 RMK A01 T01391003  RH  038%=      5-min Rain = 0
KCXS 190645Z 00005KT 14/M00 A2992 RMK A01 T01381002  RH  039%=      5-min Rain = 0
KCXS 190650Z 36004KT 14/M00 A2992 RMK A01 T01381002  RH  039%=      5-min Rain = 0
KCXS 190655Z 35004KT 14/M00 A2993 RMK A01 T01391002  RH  039%=      5-min Rain = 0
KCXS 190700Z 35004KT 14/M00 A2993 RMK A01 T01381001  RH  039%=      5-min Rain = 0
KCXS 190705Z 34004KT 14/M00 A2993 RMK A01 T01351002  RH  039%=      5-min Rain = 0
KCXS 190710Z 33004KT 13/M00 A2993 RMK A01 T01261004  RH  041%=      5-min Rain = 0
KCXS 190715Z 32005KT 12/M00 A2993 RMK A01 T01231004  RH  042%=      5-min Rain = 0
KCXS 190720Z 32005KT 12/M00 A2993 RMK A01 T01221003  RH  043%=      5-min Rain = 0
KCXS 190725Z 30007KT 12/M00 A2993 RMK A01 T01191001  RH  044%=      5-min Rain = 0
KCXS 190730Z 30008KT 11/M00 A2994 RMK A01 T01131001  RH  046%=      5-min Rain = 0
KCXS 190735Z 29008KT 11/M00 A2993 RMK A01 T01081002  RH  047%=      5-min Rain = 0
KCXS 190740Z 27008KT 10/M00 A2993 RMK A01 T01001002  RH  050%=      5-min Rain = 0
KCXS 190745Z 28008KT 09/M00 A2994 RMK A01 T00921002  RH  053%=      5-min Rain = 0
KCXS 190750Z 28009KT 09/M00 A2994 RMK A01 T00871004  RH  054%=      5-min Rain = 0
KCXS 190755Z 28009KT 09/M01 A2994 RMK A01 T00851005  RH  053%=      5-min Rain = 0
KCXS 190800Z 28008KT 08/M01 A2994 RMK A01 T00841006  RH  054%=      5-min Rain = 0
KCXS 190805Z 27009KT 08/M01 A2994 RMK A01 T00831006  RH  054%=      5-min Rain = 0
KCXS 190810Z 27009KT 08/M01 A2994 RMK A01 T00821007  RH  054%=      5-min Rain = 0
KCXS 190815Z 27009KT 08/M01 A2994 RMK A01 T00841007  RH  053%=      5-min Rain = 0
KCXS 190820Z 27008KT 09/M01 A2994 RMK A01 T00871006  RH  053%=      5-min Rain = 0
KCXS 190825Z 28008KT 09/M01 A2994 RMK A01 T00881005  RH  053%=      5-min Rain = 0
KCXS 190830Z 27008KT 09/M01 A2994 RMK A01 T00881005  RH  053%=      5-min Rain = 0
KCXS 190835Z 27008KT 09/M01 A2994 RMK A01 T00871005  RH  053%=      5-min Rain = 0
KCXS 190840Z 28008KT 09/M00 A2994 RMK A01 T00891004  RH  053%=      5-min Rain = 0
KCXS 190845Z 28007KT 09/M00 A2994 RMK A01 T00891004  RH  053%=      5-min Rain = 0
KCXS 190850Z 28007KT 09/M01 A2994 RMK A01 T00881005  RH  053%=      5-min Rain = 0
KCXS 190855Z 29006KT 09/M01 A2993 RMK A01 T00891005  RH  052%=      5-min Rain = 0
KCXS 190900Z 31006KT 09/M00 A2993 RMK A01 T00911004  RH  052%=      5-min Rain = 0
KCXS 190905Z 31006KT 09/M00 A2993 RMK A01 T00891004  RH  052%=      5-min Rain = 0
KCXS 190910Z 29007KT 09/M00 A2993 RMK A01 T00871004  RH  053%=      5-min Rain = 0
KCXS 190915Z 30006KT 09/M01 A2993 RMK A01 T00851005  RH  054%=      5-min Rain = 0
KCXS 190920Z 30006KT 08/M01 A2993 RMK A01 T00841005  RH  054%=      5-min Rain = 0
KCXS 190925Z 29008KT 08/M01 A2994 RMK A01 T00811006  RH  055%=      5-min Rain = 0
KCXS 190930Z 29008KT 08/M01 A2994 RMK A01 T00791005  RH  056%=      5-min Rain = 0
KCXS 190935Z 29009KT 08/M00 A2994 RMK A01 T00781004  RH  057%=      5-min Rain = 0
KCXS 190940Z 29008KT 08/M00 A2994 RMK A01 T00771003  RH  058%=      5-min Rain = 0
KCXS 190945Z 29008KT 08/M00 A2994 RMK A01 T00751003  RH  058%=      5-min Rain = 0
KCXS 190950Z 29008KT 07/M00 A2994 RMK A01 T00741002  RH  059%=      5-min Rain = 0
KCXS 190955Z 29008KT 07/M00 A2994 RMK A01 T00721003  RH  060%=      5-min Rain = 0
KCXS 191000Z 29008KT 07/M00 A2994 RMK A01 T00701003  RH  060%=      5-min Rain = 0
KCXS 191005Z 29008KT 07/M00 A2994 RMK A01 T00691003  RH  061%=      5-min Rain = 0
KCXS 191010Z 29008KT 07/M00 A2994 RMK A01 T00671003  RH  062%=      5-min Rain = 0
KCXS 191015Z 29008KT 07/M00 A2994 RMK A01 T00661003  RH  062%=      5-min Rain = 0
KCXS 191020Z 29008KT 07/M00 A2994 RMK A01 T00661004  RH  062%=      5-min Rain = 0
KCXS 191025Z 29009KT 07/M00 A2994 RMK A01 T00651003  RH  062%=      5-min Rain = 0
KCXS 191030Z 30008KT 07/M00 A2994 RMK A01 T00671002  RH  062%=      5-min Rain = 0
KCXS 191035Z 30009KT 07/M00 A2994 RMK A01 T00681002  RH  062%=      5-min Rain = 0
KCXS 191040Z 29009KT 07/M00 A2994 RMK A01 T00681001  RH  062%=      5-min Rain = 0
KCXS 191045Z 29009KT 07/M00 A2994 RMK A01 T00671001  RH  062%=      5-min Rain = 0
KCXS 191050Z 29008KT 07/M00 A2994 RMK A01 T00661001  RH  063%=      5-min Rain = 0
KCXS 191055Z 29008KT 07/M00 A2994 RMK A01 T00651001  RH  063%=      5-min Rain = 0
KCXS 191100Z 29008KT 06/M00 A2994 RMK A01 T00641003  RH  063%=      5-min Rain = 0
KCXS 191105Z 29008KT 06/M00 A2994 RMK A01 T00621003  RH  064%=      5-min Rain = 0
KCXS 191110Z 29008KT 06/M00 A2995 RMK A01 T00621003  RH  064%=      5-min Rain = 0
KCXS 191115Z 29008KT 06/M00 A2995 RMK A01 T00611003  RH  064%=      5-min Rain = 0
KCXS 191120Z 28008KT 06/M00 A2995 RMK A01 T00601003  RH  064%=      5-min Rain = 0
KCXS 191125Z 28007KT 06/M00 A2995 RMK A01 T00581004  RH  065%=      5-min Rain = 0
KCXS 191130Z 28007KT 06/M00 A2995 RMK A01 T00571004  RH  066%=      5-min Rain = 0
KCXS 191135Z 28007KT 06/M00 A2995 RMK A01 T00581003  RH  065%=      5-min Rain = 0
KCXS 191140Z 29008KT 06/M00 A2994 RMK A01 T00611002  RH  065%=      5-min Rain = 0
KCXS 191145Z 29008KT 06/M00 A2994 RMK A01 T00611002  RH  065%=      5-min Rain = 0
KCXS 191150Z 29008KT 06/M00 A2994 RMK A01 T00611002  RH  065%=      5-min Rain = 0
KCXS 191155Z 29009KT 06/M00 A2994 RMK A01 T00631001  RH  064%=      5-min Rain = 0
KCXS 191200Z 29009KT 06/00 A2994 RMK A01 T006400-0  RH  064%=      5-min Rain = 0
KCXS 191205Z 29008KT 07/00 A2994 RMK A01 T00670001  RH  064%=      5-min Rain = 0
KCXS 191210Z 29008KT 07/00 A2994 RMK A01 T00680002  RH  063%=      5-min Rain = 0
KCXS 191215Z 29008KT 07/00 A2994 RMK A01 T00690002  RH  063%=      5-min Rain = 0
KCXS 191220Z 29007KT 07/00 A2994 RMK A01 T00690002  RH  063%=      5-min Rain = 0
KCXS 191225Z 30006KT 07/00 A2994 RMK A01 T00730004  RH  062%=      5-min Rain = 0
KCXS 191230Z 32005KT 08/01 A2994 RMK A01 T00780005  RH  061%=      5-min Rain = 0
KCXS 191235Z 31007KT 08/01 A2994 RMK A01 T00780005  RH  061%=      5-min Rain = 0
KCXS 191240Z 30007KT 08/01 A2994 RMK A01 T00750005  RH  062%=      5-min Rain = 0
KCXS 191245Z 31005KT 08/01 A2994 RMK A01 T00750005  RH  062%=      5-min Rain = 0
KCXS 191250Z 32005KT 07/00 A2994 RMK A01 T00740004  RH  062%=      5-min Rain = 0
KCXS 191255Z 32004KT 08/00 A2994 RMK A01 T00750004  RH  061%=      5-min Rain = 0
KCXS 191300Z 33004KT 08/01 A2994 RMK A01 T00780005  RH  060%=      5-min Rain = 0
KCXS 191305Z 33003KT 08/01 A2994 RMK A01 T00810005  RH  059%=      5-min Rain = 0
KCXS 191310Z 04003KT 09/01 A2994 RMK A01 T00870009  RH  059%=      5-min Rain = 0
KCXS 191315Z 09006KT 10/02 A2993 RMK A01 T01020017  RH  056%=      5-min Rain = 0
KCXS 191320Z 09007KT 11/02 A2993 RMK A01 T01070018  RH  055%=      5-min Rain = 0
KCXS 191325Z 09007KT 11/02 A2993 RMK A01 T01050019  RH  056%=      5-min Rain = 0
KCXS 191330Z 09007KT 11/02 A2993 RMK A01 T01050019  RH  056%=      5-min Rain = 0
KCXS 191335Z 09006KT 10/02 A2993 RMK A01 T01040019  RH  056%=      5-min Rain = 0
KCXS 191340Z 09007KT 10/02 A2993 RMK A01 T01030018  RH  057%=      5-min Rain = 0
KCXS 191345Z 09008KT 10/02 A2993 RMK A01 T01040019  RH  056%=      5-min Rain = 0
KCXS 191350Z 09008KT 11/02 A2993 RMK A01 T01050019  RH  056%=      5-min Rain = 0
KCXS 191355Z 09008KT 10/02 A2993 RMK A01 T01040019  RH  056%=      5-min Rain = 0
KCXS 191400Z 08008KT 10/02 A2993 RMK A01 T01010017  RH  057%=      5-min Rain = 0
KCXS 191405Z 08007KT 10/02 A2993 RMK A01 T00980015  RH  057%=      5-min Rain = 0
KCXS 191410Z 08007KT 10/02 A2993 RMK A01 T00990016  RH  057%=      5-min Rain = 0
KCXS 191415Z 08007KT 10/02 A2993 RMK A01 T01020018  RH  057%=      5-min Rain = 0
KCXS 191420Z 09008KT 11/02 A2993 RMK A01 T01060019  RH  056%=      5-min Rain = 0
KCXS 191425Z 09008KT 11/02 A2993 RMK A01 T01100021  RH  055%=      5-min Rain = 0
KCXS 191430Z 09008KT 11/02 A2993 RMK A01 T01140021  RH  054%=      5-min Rain = 0
KCXS 191435Z 10007KT 12/02 A2993 RMK A01 T01180022  RH  053%=      5-min Rain = 0
KCXS 191440Z 10007KT 12/02 A2993 RMK A01 T01210023  RH  052%=      5-min Rain = 0
KCXS 191445Z 10008KT 12/02 A2993 RMK A01 T01230023  RH  051%=      5-min Rain = 0
KCXS 191450Z 11008KT 13/02 A2993 RMK A01 T01250023  RH  050%=      5-min Rain = 0
KCXS 191455Z 10008KT 13/02 A2993 RMK A01 T01290023  RH  049%=      5-min Rain = 0
KCXS 191500Z 11007KT 13/02 A2993 RMK A01 T01320024  RH  049%=      5-min Rain = 0
KCXS 191505Z 12007KT 14/02 A2993 RMK A01 T01350023  RH  047%=      5-min Rain = 0
KCXS 191510Z 12008KT 14/02 A2993 RMK A01 T01380023  RH  046%=      5-min Rain = 0
KCXS 191515Z 12008KT 14/02 A2993 RMK A01 T01390022  RH  046%=      5-min Rain = 0
KCXS 191520Z 12004KT 14/02 A2993 RMK A01 T01440023  RH  045%=      5-min Rain = 0
KCXS 191525Z 24002KT 15/02 A2994 RMK A01 T01470022  RH  044%=      5-min Rain = 0
KCXS 191530Z 22004KT 15/02 A2995 RMK A01 T01500022  RH  043%=      5-min Rain = 0
KCXS 191535Z 22004KT 16/02 A2995 RMK A01 T01550022  RH  041%=      5-min Rain = 0
KCXS 191540Z 27004KT 16/02 A2995 RMK A01 T01580023  RH  041%=      5-min Rain = 0
KCXS 191545Z 26003KT 16/02 A2995 RMK A01 T01550024  RH  042%=      5-min Rain = 0
KCXS 191550Z 26003KT 16/02 A2995 RMK A01 T01590023  RH  041%=      5-min Rain = 0
KCXS 191555Z 28004KT 16/02 A2995 RMK A01 T01610022  RH  040%=      5-min Rain = 0
KCXS 191600Z 29004KT 16/02 A2995 RMK A01 T01580023  RH  041%=      5-min Rain = 0
KCXS 191605Z 27003KT 16/02 A2996 RMK A01 T01620024  RH  040%=      5-min Rain = 0
KCXS 191610Z 30004KT 16/02 A2996 RMK A01 T01620023  RH  040%=      5-min Rain = 0
KCXS 191615Z 25003KT 16/02 A2995 RMK A01 T01610024  RH  040%=      5-min Rain = 0
KCXS 191620Z 24003KT 17/02 A2995 RMK A01 T01670024  RH  039%=      5-min Rain = 0
KCXS 191625Z 24003KT 17/02 A2995 RMK A01 T01710024  RH  038%=      5-min Rain = 0
KCXS 191630Z 25003KT 18/02 A2995 RMK A01 T01760023  RH  036%=      5-min Rain = 0
KCXS 191635Z 27003KT 18/02 A2995 RMK A01 T01780024  RH  036%=      5-min Rain = 0
KCXS 191640Z 26002KT 18/02 A2995 RMK A01 T01810024  RH  036%=      5-min Rain = 0
KCXS 191645Z 18001KT 19/02 A2995 RMK A01 T01880024  RH  034%=      5-min Rain = 0
KCXS 191650Z 13003KT 20/02 A2994 RMK A01 T01960023  RH  032%=      5-min Rain = 0
KCXS 191655Z 14004KT 20/02 A2994 RMK A01 T01970023  RH  032%=      5-min Rain = 0
KCXS 191700Z 18005KT 20/03 A2994 RMK A01 T01980025  RH  032%=      5-min Rain = 0
KCXS 191705Z 17008KT 20/02 A2994 RMK A01 T02020024  RH  031%=      5-min Rain = 0
KCXS 191710Z 17009KT 21/02 A2994 RMK A01 T02070023  RH  030%=      5-min Rain = 0
KCXS 191715Z 17012KT 21/02 A2993 RMK A01 T02070021  RH  030%=      5-min Rain = 0
KCXS 191720Z 17011KT 21/02 A2993 RMK A01 T02070022  RH  030%=      5-min Rain = 0
KCXS 191725Z 18011G16KT 21/02 A2993 RMK A01 T02120023  RH  029%=      5-min Rain = 0
KCXS 191730Z 17012KT 21/02 A2993 RMK A01 T02060023  RH  030%=      5-min Rain = 0
KCXS 191735Z 16013KT 21/02 A2992 RMK A01 T02080023  RH  030%=      5-min Rain = 0
KCXS 191740Z 17013KT 21/02 A2992 RMK A01 T02080022  RH  030%=      5-min Rain = 0
KCXS 191745Z 17013KT 21/02 A2992 RMK A01 T02060022  RH  030%=      5-min Rain = 0
KCXS 191750Z 15013KT 21/02 A2991 RMK A01 T02050023  RH  030%=      5-min Rain = 0
KCXS 191755Z 15012KT 21/02 A2991 RMK A01 T02100024  RH  030%=      5-min Rain = 0
KCXS 191800Z 15014KT 21/02 A299 RMK A01 T02100024  RH  030%=      5-min Rain = 0
KCXS 191805Z 15013KT 22/03 A299 RMK A01 T02150026  RH  029%=      5-min Rain = 0
KCXS 191810Z 15014KT 22/03 A2989 RMK A01 T02180025  RH  029%=      5-min Rain = 0
KCXS 191815Z 14013KT 22/03 A2989 RMK A01 T02240025  RH  028%=      5-min Rain = 0
KCXS 191820Z 15016G22KT 23/02 A2988 RMK A01 T02300022  RH  026%=      5-min Rain = 0
KCXS 191825Z 15015KT 23/02 A2988 RMK A01 T02300019  RH  025%=      5-min Rain = 0
KCXS 191830Z 15016KT 23/02 A2988 RMK A01 T02340019  RH  025%=      5-min Rain = 0
KCXS 191835Z 15015G21KT 24/02 A2988 RMK A01 T02380019  RH  024%=      5-min Rain = 0
KCXS 191840Z 16016G21KT 24/02 A2988 RMK A01 T02350018  RH  024%=      5-min Rain = 0
KCXS 191845Z 15016KT 24/02 A2987 RMK A01 T02400020  RH  024%=      5-min Rain = 0
KCXS 191850Z 16015G20KT 24/02 A2987 RMK A01 T02420022  RH  024%=      5-min Rain = 0
KCXS 191855Z 16016KT 24/02 A2987 RMK A01 T02430021  RH  024%=      5-min Rain = 0
KCXS 191900Z 16019KT 24/02 A2986 RMK A01 T02420019  RH  024%=      5-min Rain = 0
KCXS 191905Z 16019G24KT 24/02 A2986 RMK A01 T02390021  RH  024%=      5-min Rain = 0
KCXS 191910Z 16018G23KT 24/02 A2985 RMK A01 T02390024  RH  025%=      5-min Rain = 0
KCXS 191915Z 16019KT 24/03 A2985 RMK A01 T02390025  RH  025%=      5-min Rain = 0
KCXS 191920Z 16019KT 24/03 A2985 RMK A01 T02380026  RH  025%=      5-min Rain = 0
KCXS 191925Z 17017G22KT 24/03 A2984 RMK A01 T02400028  RH  026%=      5-min Rain = 0
KCXS 191930Z 17017G22KT 24/03 A2984 RMK A01 T02420029  RH  025%=      5-min Rain = 0
KCXS 191935Z 16017KT 24/03 A2984 RMK A01 T02400029  RH  026%=      5-min Rain = 0
KCXS 191940Z 17019KT 24/03 A2983 RMK A01 T02400028  RH  025%=      5-min Rain = 0
KCXS 191945Z 17018G24KT 25/03 A2983 RMK A01 T02490029  RH  024%=      5-min Rain = 0
KCXS 191950Z 17020G26KT 25/03 A2983 RMK A01 T02510029  RH  024%=      5-min Rain = 0
KCXS 191955Z 17019G26KT 25/03 A2982 RMK A01 T02540029  RH  024%=      5-min Rain = 0
KCXS 192000Z 17015G22KT 26/03 A2982 RMK A01 T02610030  RH  023%=      5-min Rain = 0
KCXS 192005Z 18020G26KT 26/03 A2982 RMK A01 T02560025  RH  023%=      5-min Rain = 0
KCXS 192010Z 17019G27KT 25/03 A2982 RMK A01 T02530029  RH  024%=      5-min Rain = 0
KCXS 192015Z 18020G25KT 25/03 A2981 RMK A01 T02540028  RH  023%=      5-min Rain = 0
KCXS 192020Z 18019G25KT 25/03 A2981 RMK A01 T02530028  RH  023%=      5-min Rain = 0
KCXS 192025Z 18019G26KT 26/03 A2981 RMK A01 T02550029  RH  024%=      5-min Rain = 0
KCXS 192030Z 18019G24KT 25/03 A2981 RMK A01 T02510030  RH  024%=      5-min Rain = 0
KCXS 192035Z 17019G26KT 25/03 A2981 RMK A01 T02470032  RH  025%=      5-min Rain = 0
KCXS 192040Z 18019G26KT 25/03 A298 RMK A01 T02510033  RH  025%=      5-min Rain = 0
KCXS 192045Z 17017G24KT 26/03 A298 RMK A01 T02580034  RH  024%=      5-min Rain = 0
KCXS 192050Z 18017G27KT 26/04 A298 RMK A01 T02590035  RH  024%=      5-min Rain = 0
KCXS 192055Z 17020G25KT 26/03 A298 RMK A01 T02560033  RH  024%=      5-min Rain = 0
KCXS 192100Z 17019G25KT 26/03 A298 RMK A01 T02580033  RH  024%=      5-min Rain = 0
KCXS 192105Z 18018G24KT 26/04 A298 RMK A01 T02570035  RH  024%=      5-min Rain = 0
KCXS 192110Z 17019G25KT 26/04 A2979 RMK A01 T02560036  RH  025%=      5-min Rain = 0
KCXS 192115Z 18020G26KT 25/04 A2979 RMK A01 T02530037  RH  025%=      5-min Rain = 0
KCXS 192120Z 17017G24KT 26/04 A2979 RMK A01 T02560039  RH  025%=      5-min Rain = 0
KCXS 192125Z 17017G24KT 26/04 A2979 RMK A01 T02550038  RH  025%=      5-min Rain = 0
KCXS 192130Z 17017G25KT 26/04 A2979 RMK A01 T02570037  RH  025%=      5-min Rain = 0
KCXS 192135Z 17019G24KT 26/03 A2979 RMK A01 T02560034  RH  024%=      5-min Rain = 0
KCXS 192140Z 17018G27KT 26/03 A2979 RMK A01 T02560034  RH  024%=      5-min Rain = 0
KCXS 192145Z 17019G27KT 26/03 A2979 RMK A01 T02550033  RH  024%=      5-min Rain = 0
KCXS 192150Z 17017G25KT 26/03 A2979 RMK A01 T02550034  RH  024%=      5-min Rain = 0
KCXS 192155Z 18015G21KT 26/04 A2979 RMK A01 T02570035  RH  024%=      5-min Rain = 0
KCXS 192200Z 17018G24KT 26/03 A2979 RMK A01 T02560034  RH  024%=      5-min Rain = 0
KCXS 192205Z 17017G22KT 25/03 A2979 RMK A01 T02540034  RH  025%=      5-min Rain = 0
KCXS 192210Z 18020G25KT 25/04 A2979 RMK A01 T02530035  RH  025%=      5-min Rain = 0
KCXS 192215Z 17019G25KT 25/04 A2979 RMK A01 T02510037  RH  025%=      5-min Rain = 0
KCXS 192220Z 18015G23KT 25/04 A2979 RMK A01 T02510038  RH  026%=      5-min Rain = 0
KCXS 192225Z 17015KT 25/04 A2979 RMK A01 T02490038  RH  026%=      5-min Rain = 0
KCXS 192230Z 17016KT 25/04 A2979 RMK A01 T02490041  RH  026%=      5-min Rain = 0
KCXS 192235Z 16014G19KT 25/04 A2979 RMK A01 T02470043  RH  027%=      5-min Rain = 0
KCXS 192240Z 17015G20KT 25/04 A2978 RMK A01 T02450044  RH  028%=      5-min Rain = 0
KCXS 192245Z 17017G22KT 25/05 A2978 RMK A01 T02450045  RH  028%=      5-min Rain = 0
KCXS 192250Z 16016G21KT 24/05 A2978 RMK A01 T02420048  RH  029%=      5-min Rain = 0
KCXS 192255Z 16014KT 24/05 A2978 RMK A01 T02380049  RH  030%=      5-min Rain = 0
KCXS 192300Z 16015KT 24/05 A2978 RMK A01 T02350051  RH  031%=      5-min Rain = 0
KCXS 192305Z 16015KT 23/05 A2978 RMK A01 T02340052  RH  031%=      5-min Rain = 0
KCXS 192310Z 16015KT 23/05 A2979 RMK A01 T02310054  RH  033%=      5-min Rain = 0
KCXS 192315Z 16014KT 23/06 A2979 RMK A01 T02270055  RH  033%=      5-min Rain = 0
KCXS 192320Z 16012G17KT 22/06 A2979 RMK A01 T02240056  RH  034%=      5-min Rain = 0
KCXS 192325Z 15013KT 22/06 A2979 RMK A01 T02200057  RH  036%=      5-min Rain = 0
KCXS 192330Z 16012KT 22/06 A2979 RMK A01 T02170058  RH  036%=      5-min Rain = 0
KCXS 192335Z 15012KT 21/06 A2978 RMK A01 T02140059  RH  037%=      5-min Rain = 0
KCXS 192340Z 15012KT 21/06 A2978 RMK A01 T02110059  RH  038%=      5-min Rain = 0
KCXS 192345Z 15011KT 21/06 A2978 RMK A01 T02090058  RH  038%=      5-min Rain = 0
KCXS 192350Z 15011KT 21/06 A2978 RMK A01 T02050057  RH  039%=      5-min Rain = 0
KCXS 192355Z 15011KT 20/06 A2978 RMK A01 T02040057  RH  039%=      5-min Rain = 0
KCXS 200000Z 14010KT 20/06 A2978 RMK A01 T02020056  RH  039%=      5-min Rain = 0
KCXS 200005Z 14010KT 20/06 A2978 RMK A01 T01970056  RH  040%=      5-min Rain = 0
KCXS 200010Z 14010KT 19/06 A2978 RMK A01 T01920055  RH  042%=      5-min Rain = 0
KCXS 200015Z 14010KT 19/05 A2978 RMK A01 T01870054  RH  043%=      5-min Rain = 0
KCXS 200020Z 14010KT 18/05 A2978 RMK A01 T01840053  RH  043%=      5-min Rain = 0
KCXS 200025Z 14011KT 18/05 A2978 RMK A01 T01820052  RH  043%=      5-min Rain = 0
KCXS 200030Z 14011KT 18/05 A2979 RMK A01 T01810051  RH  043%=      5-min Rain = 0
KCXS 200035Z 15011KT 18/05 A2979 RMK A01 T01810050  RH  043%=      5-min Rain = 0
KCXS 200040Z 14011KT 18/05 A2979 RMK A01 T01820049  RH  042%=      5-min Rain = 0
KCXS 200045Z 14011KT 18/05 A2979 RMK A01 T01800047  RH  043%=      5-min Rain = 0
KCXS 200050Z 14012KT 18/05 A2979 RMK A01 T01790046  RH  042%=      5-min Rain = 0
KCXS 200055Z 15012KT 18/04 A2978 RMK A01 T01800044  RH  041%=      5-min Rain = 0
KCXS 200100Z 15013KT 18/04 A2978 RMK A01 T01820042  RH  040%=      5-min Rain = 0
KCXS 200105Z 15012KT 18/04 A2979 RMK A01 T01810040  RH  040%=      5-min Rain = 0
KCXS 200110Z 15012KT 18/04 A2979 RMK A01 T01820037  RH  039%=      5-min Rain = 0
KCXS 200115Z 15013KT 18/04 A2979 RMK A01 T01830035  RH  038%=      5-min Rain = 0
KCXS 200120Z 15012KT 18/03 A2979 RMK A01 T01830033  RH  038%=      5-min Rain = 0
KCXS 200125Z 15012KT 18/03 A2979 RMK A01 T01820032  RH  037%=      5-min Rain = 0
KCXS 200130Z 15012KT 18/03 A2979 RMK A01 T01820031  RH  037%=      5-min Rain = 0
KCXS 200135Z 15012KT 18/03 A2979 RMK A01 T01830031  RH  037%=      5-min Rain = 0
KCXS 200140Z 15012KT 18/03 A2979 RMK A01 T01820031  RH  037%=      5-min Rain = 0
KCXS 200145Z 15012KT 18/03 A2979 RMK A01 T01810031  RH  037%=      5-min Rain = 0
KCXS 200150Z 15013KT 18/03 A2979 RMK A01 T01820033  RH  038%=      5-min Rain = 0
KCXS 200155Z 15012KT 18/03 A2978 RMK A01 T01820034  RH  038%=      5-min Rain = 0
KCXS 200200Z 15012KT 18/04 A2978 RMK A01 T01810035  RH  038%=      5-min Rain = 0
KCXS 200205Z 15011KT 18/04 A2979 RMK A01 T01790036  RH  039%=      5-min Rain = 0
KCXS 200210Z 15011KT 18/04 A2979 RMK A01 T01770037  RH  040%=      5-min Rain = 0
KCXS 200215Z 15011KT 18/04 A2979 RMK A01 T01760037  RH  040%=      5-min Rain = 0
KCXS 200220Z 15011KT 18/04 A2979 RMK A01 T01750038  RH  041%=      5-min Rain = 0
KCXS 200225Z 15011KT 17/04 A2979 RMK A01 T01740038  RH  041%=      5-min Rain = 0
KCXS 200230Z 15011KT 17/04 A2979 RMK A01 T01740039  RH  041%=      5-min Rain = 0
KCXS 200235Z 15011KT 17/04 A2979 RMK A01 T01740039  RH  042%=      5-min Rain = 0
KCXS 200240Z 15011KT 17/04 A2979 RMK A01 T01730040  RH  042%=      5-min Rain = 0
KCXS 200245Z 15011KT 17/04 A2979 RMK A01 T01720040  RH  042%=      5-min Rain = 0
KCXS 200250Z 15010KT 17/04 A2979 RMK A01 T01690040  RH  043%=      5-min Rain = 0
KCXS 200255Z 15011KT 17/04 A2979 RMK A01 T01670040  RH  044%=      5-min Rain = 0
KCXS 200300Z 15012KT 17/04 A2979 RMK A01 T01670040  RH  043%=      5-min Rain = 0
KCXS 200305Z 15012KT 17/04 A2979 RMK A01 T01660039  RH  044%=      5-min Rain = 0
KCXS 200310Z 15012KT 16/04 A2979 RMK A01 T01640039  RH  044%=      5-min Rain = 0
KCXS 200315Z 15012KT 16/04 A2979 RMK A01 T01630039  RH  044%=      5-min Rain = 0
KCXS 200320Z 15012KT 16/04 A2979 RMK A01 T01630039  RH  044%=      5-min Rain = 0
KCXS 200325Z 16012KT 16/04 A2979 RMK A01 T01630040  RH  045%=      5-min Rain = 0
KCXS 200330Z 16012KT 16/04 A2979 RMK A01 T01630040  RH  045%=      5-min Rain = 0
KCXS 200335Z 16012KT 16/04 A2979 RMK A01 T01620041  RH  045%=      5-min Rain = 0
KCXS 200340Z 15012KT 16/04 A2979 RMK A01 T01620041  RH  046%=      5-min Rain = 0
KCXS 200345Z 15013KT 16/04 A2979 RMK A01 T01630042  RH  045%=      5-min Rain = 0
KCXS 200350Z 15013KT 17/04 A2979 RMK A01 T01660043  RH  045%=      5-min Rain = 0
KCXS 200355Z 15012KT 16/04 A2979 RMK A01 T01640043  RH  045%=      5-min Rain = 0
KCXS 200400Z 15011KT 16/04 A2979 RMK A01 T01620043  RH  046%=      5-min Rain = 0
KCXS 200405Z 15012KT 16/04 A2979 RMK A01 T01620043  RH  046%=      5-min Rain = 0
KCXS 200410Z 15013KT 16/04 A2979 RMK A01 T01630043  RH  046%=      5-min Rain = 0
KCXS 200415Z 15013KT 16/04 A2979 RMK A01 T01640043  RH  046%=      5-min Rain = 0
KCXS 200420Z 15014KT 16/04 A2979 RMK A01 T01630043  RH  046%=      5-min Rain = 0
KCXS 200425Z 15014KT 16/04 A2979 RMK A01 T01630043  RH  046%=      5-min Rain = 0
KCXS 200430Z 15014KT 16/04 A2979 RMK A01 T01620043  RH  046%=      5-min Rain = 0
KCXS 200435Z 15014KT 16/04 A2979 RMK A01 T01610043  RH  047%=      5-min Rain = 0
KCXS 200440Z 15013KT 16/04 A2979 RMK A01 T01600044  RH  047%=      5-min Rain = 0
KCXS 200445Z 15013KT 16/04 A2979 RMK A01 T01590044  RH  047%=      5-min Rain = 0
KCXS 200450Z 15014KT 16/05 A2978 RMK A01 T01590045  RH  048%=      5-min Rain = 0
KCXS 200455Z 16013KT 16/05 A2978 RMK A01 T01590046  RH  048%=      5-min Rain = 0
KCXS 200500Z 16013KT 16/05 A2978 RMK A01 T01580046  RH  048%=      5-min Rain = 0
KCXS 200505Z 16014G20KT 16/05 A2978 RMK A01 T01580047  RH  049%=      5-min Rain = 0
KCXS 200510Z 16013KT 16/05 A2978 RMK A01 T01570048  RH  049%=      5-min Rain = 0
KCXS 200515Z 16014KT 16/05 A2978 RMK A01 T01560048  RH  050%=      5-min Rain = 0
KCXS 200520Z 16013KT 16/05 A2978 RMK A01 T01550049  RH  050%=      5-min Rain = 0
KCXS 200525Z 16013KT 16/05 A2978 RMK A01 T01550050  RH  051%=      5-min Rain = 0
KCXS 200530Z 16013KT 15/05 A2978 RMK A01 T01540050  RH  051%=      5-min Rain = 0
KCXS 200535Z 16012KT 15/05 A2978 RMK A01 T01520051  RH  052%=      5-min Rain = 0
KCXS 200540Z 16011KT 15/05 A2979 RMK A01 T01510051  RH  052%=      5-min Rain = 0
KCXS 200545Z 17012KT 15/05 A2978 RMK A01 T01510052  RH  052%=      5-min Rain = 0
KCXS 200550Z 17013KT 15/05 A2979 RMK A01 T01510052  RH  053%=      5-min Rain = 0
KCXS 200555Z 17013KT 15/05 A2979 RMK A01 T01510053  RH  053%=      5-min Rain = 0

Page generated in 0.0089 seconds.